Time;durP1;ratioP1;P1;durP2;ratioP2;P2;SDS_P1;SDS_P2;PMS_P1;PMS_P2;Temp;Humidity;BMP_temperature;BMP_pressure;BME280_temperature;BME280_humidity;BME280_pressure;Samples;Min_cycle;Max_cycle;Signal;HPM_P1;HPM_P2
2021/03/26 00:01:25;;;;;;;12.63;5.93;;;;;;;7.70;51.05;96220.81;5030763;28;20076;-52
2021/03/26 00:03:54;;;;;;;10.27;5.60;;;;;;;7.66;51.28;96217.13;5034683;28;20132;-52
2021/03/26 00:06:24;;;;;;;15.85;6.10;;;;;;;7.66;51.35;96221.72;5050303;28;20171;-52
2021/03/26 00:08:52;;;;;;;11.68;5.97;;;;;;;7.62;51.60;96218.84;5032903;28;20083;-48
2021/03/26 00:11:21;;;;;;;9.63;5.75;;;;;;;7.56;51.99;96217.38;5030827;28;20056;-51
2021/03/26 00:13:47;;;;;;;13.15;5.72;;;;;;;7.39;52.46;96222.63;5030688;28;20103;-54
2021/03/26 00:16:14;;;;;;;9.82;5.47;;;;;;;7.41;52.63;96213.16;5030560;28;20396;-48
2021/03/26 00:18:40;;;;;;;10.90;5.78;;;;;;;7.48;52.33;96218.13;5030122;28;20049;-50
2021/03/26 00:21:07;;;;;;;12.85;5.53;;;;;;;7.34;52.89;96209.28;5030800;28;20144;-50
2021/03/26 00:23:34;;;;;;;9.80;5.57;;;;;;;7.44;52.99;96222.50;5030762;28;20053;-49
2021/03/26 00:26:01;;;;;;;11.43;5.70;;;;;;;7.38;53.07;96218.34;5030357;28;20506;-51
2021/03/26 00:28:28;;;;;;;9.82;5.70;;;;;;;7.34;52.82;96223.53;5029848;28;20107;-55
2021/03/26 00:30:55;;;;;;;14.00;6.35;;;;;;;7.37;52.86;96216.75;5030460;28;20449;-51
2021/03/26 00:33:22;;;;;;;12.85;6.47;;;;;;;7.34;53.09;96209.28;5030658;28;20560;-51
2021/03/26 00:35:48;;;;;;;11.27;5.80;;;;;;;7.15;53.90;96220.19;5030661;28;20572;-49
2021/03/26 00:38:15;;;;;;;11.90;6.10;;;;;;;7.17;54.24;96226.06;5029628;28;20503;-49
2021/03/26 00:40:42;;;;;;;12.27;6.55;;;;;;;7.32;53.79;96228.44;5038239;28;20113;-49
2021/03/26 00:43:09;;;;;;;11.85;6.13;;;;;;;7.18;54.26;96227.66;5050446;28;20053;-54
2021/03/26 00:45:38;;;;;;;10.63;5.93;;;;;;;7.13;54.40;96225.88;5045128;28;20037;-52
2021/03/26 00:48:05;;;;;;;11.40;6.07;;;;;;;7.20;54.41;96220.88;5029918;28;20066;-50
2021/03/26 00:50:42;;;;;;;10.40;5.60;;;;;;;7.18;54.27;96225.78;5029022;28;20567;-47
2021/03/26 00:53:13;;;;;;;11.98;6.45;;;;;;;7.37;53.77;96227.50;5032830;28;20045;-52
2021/03/26 00:55:40;;;;;;;16.25;6.50;;;;;;;7.18;54.33;96231.16;5033062;28;20045;-49
2021/03/26 00:58:07;;;;;;;11.32;5.68;;;;;;;7.09;54.28;96227.59;5033228;28;20137;-49
2021/03/26 01:00:37;;;;;;;14.07;5.75;;;;;;;7.09;54.40;96224.13;5033916;28;20061;-52
2021/03/26 01:03:06;;;;;;;11.35;6.05;;;;;;;7.05;54.63;96215.81;5033638;28;20103;-51
2021/03/26 01:05:37;;;;;;;11.50;5.80;;;;;;;7.00;54.76;96216.75;5033972;28;20056;-50
2021/03/26 01:08:04;;;;;;;13.15;5.63;;;;;;;7.06;54.55;96219.31;5033146;28;20062;-50
2021/03/26 01:10:48;;;;;;;10.27;5.72;;;;;;;7.03;54.72;96223.41;5032548;28;20076;-50
2021/03/26 01:13:16;;;;;;;8.98;5.72;;;;;;;6.98;55.02;96213.53;5032712;28;20168;-49
2021/03/26 01:15:46;;;;;;;10.27;5.10;;;;;;;6.95;54.95;96222.22;5032251;28;20470;-50
2021/03/26 01:18:24;;;;;;;10.82;5.47;;;;;;;6.91;55.24;96212.38;5033034;28;20190;-46
2021/03/26 01:20:53;;;;;;;9.93;5.03;;;;;;;6.74;55.52;96219.16;5033918;28;20053;-51
2021/03/26 01:23:20;;;;;;;10.68;5.22;;;;;;;6.76;55.88;96218.88;5032363;28;20073;-48
2021/03/26 01:25:47;;;;;;;8.70;5.05;;;;;;;6.82;55.50;96216.88;5033213;28;20052;-50
2021/03/26 01:28:30;;;;;;;11.93;4.97;;;;;;;6.72;55.75;96210.59;5031736;28;20061;-47
2021/03/26 01:31:16;;;;;;;11.90;5.70;;;;;;;6.76;55.88;96208.13;5034054;28;20080;-46
2021/03/26 01:33:44;;;;;;;11.20;4.82;;;;;;;6.78;55.81;96198.63;5032708;28;20436;-47
2021/03/26 01:36:12;;;;;;;9.05;5.15;;;;;;;6.79;55.95;96205.63;5032300;28;20525;-52
2021/03/26 01:38:40;;;;;;;8.55;5.18;;;;;;;6.75;56.02;96210.00;5031635;28;20495;-47
2021/03/26 01:41:16;;;;;;;9.93;5.35;;;;;;;6.68;56.58;96206.91;5044490;28;20131;-49
2021/03/26 01:43:44;;;;;;;10.27;5.03;;;;;;;6.77;56.12;96215.88;5053029;28;20049;-46
2021/03/26 01:46:13;;;;;;;9.77;5.10;;;;;;;6.84;55.54;96215.47;5044636;28;20056;-47
2021/03/26 01:48:52;;;;;;;8.77;5.20;;;;;;;6.58;56.41;96209.81;5044059;28;20049;-47
2021/03/26 01:51:30;;;;;;;9.02;4.85;;;;;;;6.55;56.90;96208.50;5032155;28;20080;-49
2021/03/26 01:53:58;;;;;;;10.90;5.40;;;;;;;6.55;56.78;96203.13;5031614;28;20095;-47
2021/03/26 01:56:28;;;;;;;11.07;5.80;;;;;;;6.51;57.15;96204.84;5031246;28;20128;-50
2021/03/26 01:59:18;;;;;;;10.50;5.50;;;;;;;6.49;57.20;96209.72;5032246;28;20049;-48
2021/03/26 02:01:50;;;;;;;9.82;5.55;;;;;;;6.49;57.04;96204.34;5031288;28;20612;-49
2021/03/26 02:04:26;;;;;;;9.25;5.15;;;;;;;6.55;57.09;96196.97;5031175;28;20803;-50
2021/03/26 02:06:57;;;;;;;12.55;5.93;;;;;;;6.38;58.11;96202.16;5030598;28;20046;-46
2021/03/26 02:09:29;;;;;;;10.35;4.93;;;;;;;6.33;58.13;96195.75;5049987;28;20147;-51
2021/03/26 02:12:00;;;;;;;;;;;;;;;6.31;57.87;96194.50;5051909;28;20387;-49
2021/03/26 02:14:41;;;;;;;9.88;5.32;;;;;;;6.47;57.75;96189.63;5051539;28;20275;-47
2021/03/26 02:17:16;;;;;;;10.98;5.13;;;;;;;6.39;57.56;96191.09;5031281;28;20534;-51
2021/03/26 02:20:17;;;;;;;9.38;5.30;;;;;;;6.41;57.70;96190.81;5032750;28;20576;-49
2021/03/26 02:22:44;;;;;;;10.00;5.78;;;;;;;6.43;57.68;96194.78;5032621;28;20068;-47
2021/03/26 02:25:17;;;;;;;9.98;5.45;;;;;;;6.55;57.37;96196.97;5031828;28;20046;-52
2021/03/26 02:27:45;;;;;;;8.93;5.13;;;;;;;6.45;57.50;96197.19;5045648;28;20503;-49
2021/03/26 02:30:24;;;;;;;11.68;5.80;;;;;;;6.30;57.74;96209.81;5032022;28;20049;-48
2021/03/26 02:32:52;;;;;;;10.70;5.25;;;;;;;6.15;58.67;96204.72;5031624;28;20073;-50
2021/03/26 02:35:26;;;;;;;12.52;5.40;;;;;;;6.21;58.68;96200.06;5041425;28;20049;-50
2021/03/26 02:38:10;;;;;;;12.63;6.00;;;;;;;6.23;58.54;96198.66;5047330;28;20053;-48
2021/03/26 02:40:51;;;;;;;9.90;5.57;;;;;;;6.48;58.31;96197.38;5038343;28;20049;-49
2021/03/26 02:43:54;;;;;;;11.40;6.15;;;;;;;6.30;58.75;96203.63;5052506;28;20103;-47
2021/03/26 02:46:41;;;;;;;10.82;5.50;;;;;;;6.30;58.40;96204.44;5048611;28;20474;-46
2021/03/26 02:49:37;;;;;;;12.15;6.20;;;;;;;6.39;57.87;96209.13;5032227;28;20057;-52
2021/03/26 02:52:33;;;;;;;10.43;5.65;;;;;;;6.26;58.23;96205.31;5031055;28;20061;-48
2021/03/26 02:55:24;;;;;;;11.88;6.40;;;;;;;6.21;58.53;96208.91;5032214;28;20560;-49
2021/03/26 02:58:12;;;;;;;12.38;6.25;;;;;;;6.21;59.13;96216.19;5031001;28;20049;-47
2021/03/26 03:01:12;;;;;;;12.10;6.78;;;;;;;6.31;58.23;96218.69;5030892;28;20167;-46
2021/03/26 03:03:41;;;;;;;12.80;7.88;;;;;;;6.26;58.13;96219.56;5030679;28;20064;-49
2021/03/26 03:06:21;;;;;;;15.38;11.10;;;;;;;5.99;59.11;96217.63;5031285;28;20060;-48
2021/03/26 03:09:11;;;;;;;21.98;13.18;;;;;;;5.85;59.75;96214.88;5030396;28;20041;-50
2021/03/26 03:11:55;;;;;;;22.73;15.73;;;;;;;5.86;59.95;96218.38;5031842;28;20072;-51
2021/03/26 03:14:27;;;;;;;;;;;;;;;5.94;59.45;96219.59;5031260;28;20088;-46
2021/03/26 03:17:11;;;;;;;18.25;12.15;;;;;;;5.83;59.79;96214.38;5030576;28;19944;-48
2021/03/26 03:19:54;;;;;;;17.98;11.40;;;;;;;5.81;59.71;96221.91;5030571;28;20445;-52
2021/03/26 03:22:39;;;;;;;17.65;11.57;;;;;;;5.95;59.38;96213.16;5031663;28;20049;-53
2021/03/26 03:25:17;;;;;;;14.25;7.28;;;;;;;5.75;59.81;96211.56;5030275;28;20392;-49
2021/03/26 03:28:09;;;;;;;12.18;8.02;;;;;;;5.90;59.85;96213.19;5030749;28;20056;-51
2021/03/26 03:31:05;;;;;;;14.07;8.40;;;;;;;5.80;59.80;96211.50;5030466;28;20119;-52
2021/03/26 03:34:16;;;;;;;14.32;8.30;;;;;;;6.18;58.35;96208.72;5030441;28;20049;-52
2021/03/26 03:37:08;;;;;;;15.27;7.90;;;;;;;6.18;58.01;96208.72;5011559;28;20107;-52
2021/03/26 03:39:41;;;;;;;11.70;6.72;;;;;;;6.33;57.50;96203.81;5030130;28;20049;-50
2021/03/26 03:42:17;;;;;;;10.80;6.38;;;;;;;6.20;57.96;96199.25;5049672;28;20083;-50
2021/03/26 03:44:55;;;;;;;14.45;7.30;;;;;;;6.02;59.12;96200.13;5049800;28;20056;-51
2021/03/26 03:47:40;;;;;;;10.88;6.30;;;;;;;5.98;58.97;96193.75;5046255;28;20144;-52
2021/03/26 03:50:22;;;;;;;11.27;6.43;;;;;;;5.94;59.14;96187.38;5030142;28;20056;-52
2021/03/26 03:53:23;;;;;;;11.48;6.88;;;;;;;5.94;60.29;96184.69;5031388;28;20066;-52
2021/03/26 03:56:19;;;;;;;10.60;5.82;;;;;;;5.97;59.22;96192.16;5018515;28;20520;-53
2021/03/26 03:58:56;;;;;;;10.82;6.05;;;;;;;6.01;59.28;96188.59;5029943;28;20137;-49
2021/03/26 04:01:48;;;;;;;10.65;6.25;;;;;;;6.10;59.14;96194.06;5031752;28;20068;-51
2021/03/26 04:04:21;;;;;;;10.25;5.50;;;;;;;5.91;59.40;96191.41;5031801;28;20072;-53
2021/03/26 04:06:55;;;;;;;11.73;5.68;;;;;;;5.87;59.42;96187.72;5029737;28;20053;-53
2021/03/26 04:09:28;;;;;;;9.20;5.72;;;;;;;5.96;58.96;96190.56;5031054;28;20054;-49
2021/03/26 04:12:08;;;;;;;14.77;7.05;;;;;;;5.92;59.39;96189.53;5029830;28;20506;-52
2021/03/26 04:15:13;;;;;;;10.82;5.88;;;;;;;6.02;58.60;96184.81;5029513;28;20053;-50
2021/03/26 04:18:06;;;;;;;11.15;6.63;;;;;;;5.79;60.11;96189.22;5049213;28;20144;-50
2021/03/26 04:21:09;;;;;;;17.92;6.78;;;;;;;5.71;60.34;96184.50;5046895;28;20056;-50
2021/03/26 04:23:56;;;;;;;9.57;6.00;;;;;;;5.68;60.24;96201.19;5049834;28;20208;-50
2021/03/26 04:26:55;;;;;;;12.38;5.97;;;;;;;5.53;60.36;96204.16;5044864;28;20042;-50
2021/03/26 04:30:19;;;;;;;14.40;6.15;;;;;;;5.36;60.87;96192.06;5030720;28;20065;-52
2021/03/26 04:32:56;;;;;;;12.05;6.15;;;;;;;5.16;61.18;96201.19;5033793;28;20045;-50
2021/03/26 04:35:25;;;;;;;9.48;5.47;;;;;;;5.21;61.67;96202.22;5034368;28;20049;-51
2021/03/26 04:38:21;;;;;;;10.90;5.80;;;;;;;5.35;61.20;96195.81;5039196;28;20068;-48
2021/03/26 04:40:57;;;;;;;11.45;5.57;;;;;;;5.29;61.41;96210.41;5053481;28;20079;-49
2021/03/26 04:44:01;;;;;;;9.13;5.45;;;;;;;5.45;60.36;96202.13;5053446;28;20128;-51
2021/03/26 04:46:33;;;;;;;14.32;6.10;;;;;;;5.18;61.42;96206.28;5052529;28;20132;-52
2021/03/26 04:49:11;;;;;;;14.43;7.30;;;;;;;4.51;63.92;96209.03;5033171;28;20045;-50
2021/03/26 04:52:20;;;;;;;10.60;5.35;;;;;;;4.59;63.82;96203.06;5032880;28;20151;-53
2021/03/26 04:54:59;;;;;;;10.60;6.03;;;;;;;4.45;64.06;96216.34;5032256;28;20136;-50
2021/03/26 04:57:55;;;;;;;11.35;5.50;;;;;;;4.44;63.88;96206.69;5033820;28;20054;-52
2021/03/26 05:00:33;;;;;;;11.70;5.18;;;;;;;4.55;63.68;96203.91;5033021;28;20046;-47
2021/03/26 05:03:10;;;;;;;;;;;;;;;4.62;63.25;96204.38;5034492;28;20061;-52
2021/03/26 05:05:45;;;;;;;17.25;5.57;;;;;;;4.48;63.31;96200.78;5032578;28;19963;-49
2021/03/26 05:08:44;;;;;;;16.30;5.55;;;;;;;4.39;63.64;96204.09;5033250;28;20053;-48
2021/03/26 05:11:45;;;;;;;11.48;4.63;;;;;;;4.25;64.34;96207.72;5018300;28;20050;-50
2021/03/26 05:14:23;;;;;;;11.40;4.68;;;;;;;4.32;64.51;96202.81;5032655;28;20046;-48
2021/03/26 05:16:58;;;;;;;9.95;5.05;;;;;;;4.38;64.36;96196.31;5032293;28;20045;-51
2021/03/26 05:19:55;;;;;;;11.25;5.32;;;;;;;4.50;63.58;96198.63;5053059;28;20588;-51
2021/03/26 05:22:45;;;;;;;11.82;4.75;;;;;;;4.36;64.12;96198.50;5052690;28;20520;-49
2021/03/26 05:25:47;;;;;;;10.50;4.72;;;;;;;4.51;63.45;96201.00;5014317;28;20057;-52
2021/03/26 05:28:45;;;;;;;15.23;5.20;;;;;;;4.61;62.72;96200.88;5030560;28;20060;-52
2021/03/26 05:31:34;;;;;;;14.98;5.38;;;;;;;4.30;63.95;96205.81;5033048;28;20057;-51
2021/03/26 05:34:13;;;;;;;9.70;5.10;;;;;;;4.37;63.88;96200.09;5038173;28;20050;-55
2021/03/26 05:36:47;;;;;;;11.68;5.03;;;;;;;4.36;63.76;96204.66;5032616;28;20579;-50
2021/03/26 05:39:59;;;;;;;10.05;4.10;;;;;;;4.30;63.68;96203.13;5020793;28;20052;-51
2021/03/26 05:43:22;;;;;;;7.85;4.20;;;;;;;4.29;63.40;96204.22;5017909;28;20073;-48
2021/03/26 05:46:17;;;;;;;8.73;4.18;;;;;;;4.36;63.05;96217.25;5051715;22;20135;-50
2021/03/26 05:49:22;;;;;;;9.15;3.80;;;;;;;4.49;63.05;96211.22;5032441;28;20656;-50
2021/03/26 05:52:14;;;;;;;11.80;5.18;;;;;;;4.53;63.01;96203.41;5048209;28;20056;-48
2021/03/26 05:55:07;;;;;;;10.27;4.53;;;;;;;4.66;62.74;96202.69;5031576;28;20076;-49
2021/03/26 05:57:46;;;;;;;9.93;4.28;;;;;;;4.41;63.44;96204.59;5015024;28;20057;-51
2021/03/26 06:00:34;;;;;;;9.85;4.60;;;;;;;4.47;63.50;96201.88;5031690;28;20049;-47
2021/03/26 06:03:23;;;;;;;9.50;3.95;;;;;;;4.58;63.00;96206.81;5032440;28;20049;-48
2021/03/26 06:06:39;;;;;;;10.85;4.97;;;;;;;4.54;63.69;96202.31;5032724;28;20085;-50
2021/03/26 06:09:39;;;;;;;9.77;4.78;;;;;;;4.72;62.69;96203.44;5032704;28;20165;-50
2021/03/26 06:13:06;;;;;;;9.27;4.72;;;;;;;4.72;63.39;96201.56;5052890;28;20075;-48
2021/03/26 06:16:03;;;;;;;8.48;4.38;;;;;;;4.74;63.02;96203.94;5045317;28;20183;-51
2021/03/26 06:19:07;;;;;;;9.15;4.60;;;;;;;4.87;62.51;96203.22;5032146;28;20057;-47
2021/03/26 06:22:10;;;;;;;9.00;4.13;;;;;;;5.12;61.24;96204.75;5045804;28;20049;-49
2021/03/26 06:25:22;;;;;;;10.38;3.85;;;;;;;5.41;59.75;96201.13;5041349;28;20045;-50
2021/03/26 06:28:26;;;;;;;13.63;4.97;;;;;;;5.65;58.98;96203.69;5050270;28;20521;-48
2021/03/26 06:31:15;;;;;;;11.85;5.35;;;;;;;5.77;58.51;96198.66;5051015;28;20073;-47
2021/03/26 06:34:42;;;;;;;8.77;3.97;;;;;;;5.80;57.69;96204.22;5038744;28;20060;-47
2021/03/26 06:37:24;;;;;;;7.50;3.95;;;;;;;5.88;57.33;96200.06;5047409;28;20045;-47
2021/03/26 06:40:14;;;;;;;9.55;4.30;;;;;;;5.89;57.08;96193.63;5032718;28;20135;-50
2021/03/26 06:42:53;;;;;;;8.93;3.92;;;;;;;6.03;56.91;96201.72;5032439;28;20057;-47
2021/03/26 06:45:49;;;;;;;9.63;4.03;;;;;;;6.19;56.70;96197.66;5032385;28;20054;-51
2021/03/26 06:48:29;;;;;;;8.15;4.70;;;;;;;6.14;56.52;96194.25;5032389;28;20045;-48
2021/03/26 06:51:26;;;;;;;8.80;4.47;;;;;;;6.32;56.20;96194.19;5032519;28;20590;-51
2021/03/26 06:54:04;;;;;;;10.95;3.90;;;;;;;6.53;55.64;96196.47;5032207;28;20498;-50
2021/03/26 06:56:43;;;;;;;10.00;4.07;;;;;;;7.48;52.50;96196.56;5032263;28;20065;-49
2021/03/26 07:00:00;;;;;;;7.93;3.70;;;;;;;7.17;52.97;96189.19;5032837;28;20081;-51
2021/03/26 07:03:07;;;;;;;12.27;3.92;;;;;;;7.05;53.29;96186.22;5009986;28;20049;-55
2021/03/26 07:05:53;;;;;;;10.05;4.32;;;;;;;7.01;53.82;96187.94;5030950;28;20050;-49
2021/03/26 07:08:32;;;;;;;11.13;4.60;;;;;;;7.02;53.94;96186.84;5031954;28;20053;-50
2021/03/26 07:11:41;;;;;;;8.20;4.47;;;;;;;7.32;52.95;96192.66;5032447;28;20063;-48
2021/03/26 07:14:34;;;;;;;11.68;4.60;;;;;;;7.46;52.89;96186.09;5032057;28;20060;-51
2021/03/26 07:17:01;;;;;;;9.90;4.45;;;;;;;7.58;52.52;96184.75;5050574;28;20049;-49
2021/03/26 07:20:07;;;;;;;13.30;4.88;;;;;;;7.69;51.85;96186.88;5051453;28;20107;-51
2021/03/26 07:23:01;;;;;;;10.90;5.00;;;;;;;7.83;51.41;96184.13;5047474;28;20055;-50
2021/03/26 07:25:31;;;;;;;15.13;6.25;;;;;;;7.93;51.28;96180.38;5051684;28;20119;-48
2021/03/26 07:28:05;;;;;;;13.05;6.15;;;;;;;8.06;50.90;96176.81;5038790;28;20395;-52
2021/03/26 07:31:07;;;;;;;11.35;6.13;;;;;;;8.42;50.40;96181.28;5052135;28;20052;-51
2021/03/26 07:33:51;;;;;;;15.75;6.20;;;;;;;8.69;49.56;96184.84;5032100;28;20485;-52
2021/03/26 07:36:50;;;;;;;11.18;5.88;;;;;;;8.72;49.90;96174.22;5044847;28;20106;-48
2021/03/26 07:39:42;;;;;;;14.98;6.10;;;;;;;9.29;48.62;96174.09;5051229;28;20064;-49
2021/03/26 07:42:25;;;;;;;14.90;6.20;;;;;;;9.46;48.10;96172.53;5049276;28;20052;-50
2021/03/26 07:45:10;;;;;;;22.13;7.40;;;;;;;8.96;49.48;96170.28;5042034;28;20041;-52
2021/03/26 07:47:43;;;;;;;13.25;6.30;;;;;;;8.99;49.26;96166.94;5046610;28;20457;-50
2021/03/26 07:50:33;;;;;;;8.73;5.07;;;;;;;9.10;50.30;96174.44;5050453;28;20410;-47
2021/03/26 07:53:40;;;;;;;15.87;5.83;;;;;;;9.13;49.23;96181.91;5051911;28;20124;-51
2021/03/26 07:56:27;;;;;;;15.68;6.60;;;;;;;9.40;49.03;96179.22;5043260;28;20305;-48
2021/03/26 07:58:57;;;;;;;14.85;5.88;;;;;;;9.45;48.61;96179.81;5048384;28;20085;-50
2021/03/26 08:01:42;;;;;;;11.93;5.82;;;;;;;10.03;47.40;96174.97;5051683;28;20044;-47
2021/03/26 08:04:41;;;;;;;14.50;7.28;;;;;;;10.87;45.76;96173.34;5047840;28;20091;-48
2021/03/26 08:07:46;;;;;;;15.20;7.85;;;;;;;10.44;46.69;96174.38;5051236;28;20053;-50
2021/03/26 08:10:19;;;;;;;14.80;7.93;;;;;;;10.36;46.62;96166.28;5005523;28;20485;-50
2021/03/26 08:13:02;;;;;;;14.93;7.43;;;;;;;10.34;46.96;96166.63;5054632;28;20136;-51
2021/03/26 08:15:29;;;;;;;;;;;;;;;10.40;47.51;96169.94;5058379;28;20286;-49
2021/03/26 08:18:07;;;;;;;15.77;8.32;;;;;;;10.46;46.82;96172.16;5060734;28;19920;-48
2021/03/26 08:21:05;;;;;;;20.42;8.25;;;;;;;10.46;47.19;96169.44;5057264;28;20405;-47
2021/03/26 08:23:38;;;;;;;16.45;8.25;;;;;;;10.56;47.05;96162.06;5066257;28;20045;-48
2021/03/26 08:26:14;;;;;;;;;;;;;;;10.64;46.90;96158.53;5053093;28;20444;-50
2021/03/26 08:29:00;;;;;;;13.93;7.78;;;;;;;10.63;46.85;96156.97;5069943;28;19931;-47
2021/03/26 08:31:59;;;;;;;14.68;7.72;;;;;;;10.73;46.53;96162.78;5047918;28;20053;-45
2021/03/26 08:34:37;;;;;;;18.83;7.55;;;;;;;10.67;46.40;96168.72;5035613;28;20053;-46
2021/03/26 08:37:22;;;;;;;19.52;9.07;;;;;;;10.95;45.92;96167.13;5039249;28;20044;-43
2021/03/26 08:39:52;;;;;;;16.90;9.13;;;;;;;11.08;46.18;96168.00;5064583;28;20110;-48
2021/03/26 08:42:28;;;;;;;16.17;8.98;;;;;;;11.00;46.94;96172.31;5060408;28;20048;-45
2021/03/26 08:45:14;;;;;;;16.58;9.70;;;;;;;11.12;46.60;96181.66;5069930;28;20412;-48
2021/03/26 08:47:58;;;;;;;20.20;9.32;;;;;;;11.14;46.78;96171.28;5056206;28;20139;-50
2021/03/26 08:50:55;;;;;;;17.75;10.35;;;;;;;11.38;46.82;96179.53;5054370;28;20076;-49
2021/03/26 08:53:55;;;;;;;15.02;9.43;;;;;;;11.35;47.07;96174.78;5055565;28;20510;-47
2021/03/26 08:56:37;;;;;;;16.95;10.98;;;;;;;11.13;47.18;96169.69;5067435;28;20059;-50
2021/03/26 08:59:27;;;;;;;19.42;11.27;;;;;;;11.45;46.76;96171.66;5049536;28;20498;-50
2021/03/26 09:02:17;;;;;;;16.83;10.55;;;;;;;11.60;46.42;96172.16;5054438;28;20052;-48
2021/03/26 09:05:06;;;;;;;19.60;11.30;;;;;;;11.87;45.73;96168.94;5053054;28;20057;-50
2021/03/26 09:08:01;;;;;;;17.10;9.63;;;;;;;12.03;45.19;96173.72;5047850;28;20045;-49
2021/03/26 09:10:49;;;;;;;17.67;10.00;;;;;;;11.89;45.55;96161.25;5041888;28;20055;-47
2021/03/26 09:13:27;;;;;;;16.25;9.85;;;;;;;12.23;45.46;96166.63;5064411;28;20478;-45
2021/03/26 09:16:22;;;;;;;19.10;10.52;;;;;;;12.00;45.19;96163.53;5051161;28;20048;-50
2021/03/26 09:18:59;;;;;;;17.83;10.00;;;;;;;12.15;43.73;96163.69;5054343;28;20053;-47
2021/03/26 09:21:41;;;;;;;15.70;9.20;;;;;;;12.18;44.57;96164.13;5048168;28;20052;-49
2021/03/26 09:24:35;;;;;;;17.50;10.10;;;;;;;11.98;44.49;96163.88;5032833;28;20486;-49
2021/03/26 09:27:08;;;;;;;18.23;10.13;;;;;;;12.39;43.80;96156.72;5027820;28;20144;-49
2021/03/26 09:29:49;;;;;;;16.90;9.73;;;;;;;12.50;43.12;96160.53;5059370;28;20123;-46
2021/03/26 09:32:33;;;;;;;18.20;9.93;;;;;;;12.53;43.09;96150.94;5060486;28;20053;-47
2021/03/26 09:35:13;;;;;;;24.92;11.13;;;;;;;12.59;42.54;96149.59;5054203;28;20442;-48
2021/03/26 09:37:45;;;;;;;17.98;9.75;;;;;;;12.79;42.24;96153.31;5050083;28;20064;-47
2021/03/26 09:40:33;;;;;;;15.02;8.60;;;;;;;12.94;41.66;96139.03;5054611;28;20056;-46
2021/03/26 09:43:29;;;;;;;16.10;9.45;;;;;;;13.11;40.92;96138.00;5061122;28;20056;-52
2021/03/26 09:45:59;;;;;;;15.00;9.30;;;;;;;13.24;41.11;96136.84;5048544;28;20570;-46
2021/03/26 09:48:37;;;;;;;16.98;9.18;;;;;;;13.11;41.79;96129.84;5054036;28;20048;-45
2021/03/26 09:51:07;;;;;;;15.88;8.63;;;;;;;13.14;41.03;96137.31;5063159;28;20083;-51
2021/03/26 09:53:37;;;;;;;17.02;9.00;;;;;;;13.24;42.00;96133.31;5053086;28;20131;-52
2021/03/26 09:56:35;;;;;;;17.17;9.68;;;;;;;13.21;40.80;96140.22;5051330;28;20041;-50
2021/03/26 09:59:26;;;;;;;22.65;9.18;;;;;;;13.26;40.21;96131.88;5062332;28;20391;-46
2021/03/26 10:02:03;;;;;;;15.48;8.65;;;;;;;13.39;40.33;96132.63;5047752;28;20049;-50
2021/03/26 10:04:39;;;;;;;16.77;9.52;;;;;;;13.00;41.08;96128.72;5043627;28;20537;-49
2021/03/26 10:07:29;;;;;;;17.23;9.32;;;;;;;12.94;41.01;96130.09;5055062;28;20045;-47
2021/03/26 10:13:05;;;;;;;19.02;9.25;;;;;;;13.30;41.68;96126.53;5058322;28;20068;-48
2021/03/26 10:15:47;;;;;;;17.80;8.70;;;;;;;13.42;40.32;96125.69;5045684;28;20201;-47
2021/03/26 10:18:24;;;;;;;16.80;9.38;;;;;;;13.38;40.59;96127.53;5051427;28;20498;-47
2021/03/26 10:21:04;;;;;;;16.23;8.73;;;;;;;13.52;40.12;96127.94;5060997;28;20087;-47
2021/03/26 10:23:52;;;;;;;15.52;9.55;;;;;;;13.96;39.37;96119.78;5058982;28;20510;-49
2021/03/26 10:26:42;;;;;;;16.50;9.13;;;;;;;13.54;39.60;96123.72;5053613;28;20103;-48
2021/03/26 10:29:35;;;;;;;16.25;9.05;;;;;;;13.61;38.79;96117.69;5045939;28;20402;-52
2021/03/26 10:32:14;;;;;;;24.55;9.45;;;;;;;13.78;38.93;96114.66;5055221;28;20402;-47
2021/03/26 10:34:43;;;;;;;21.23;9.77;;;;;;;13.79;38.93;96110.00;5054575;28;20063;-50
2021/03/26 10:37:51;;;;;;;19.35;9.30;;;;;;;14.04;38.48;96105.22;5059384;28;20041;-49
2021/03/26 10:40:30;;;;;;;15.55;7.90;;;;;;;13.94;39.35;96108.44;5058824;28;20044;-45
2021/03/26 10:43:06;;;;;;;17.42;8.35;;;;;;;14.11;39.52;96104.63;5063113;28;20047;-49
2021/03/26 10:45:54;;;;;;;16.15;9.00;;;;;;;14.02;38.86;96096.63;5063272;28;20052;-49
2021/03/26 10:49:23;;;;;;;19.42;8.30;;;;;;;14.36;39.07;96094.31;5042069;28;20044;-51
2021/03/26 10:52:05;;;;;;;13.50;7.70;;;;;;;14.39;37.33;96086.22;5047955;28;20127;-49
2021/03/26 10:54:44;;;;;;;15.07;8.02;;;;;;;14.58;36.80;96087.47;5059716;28;20095;-50
2021/03/26 10:57:44;;;;;;;15.05;8.55;;;;;;;14.69;36.55;96080.38;5050120;28;20057;-50
2021/03/26 11:00:22;;;;;;;15.30;7.97;;;;;;;15.07;35.52;96078.81;5045655;28;20057;-48
2021/03/26 11:02:51;;;;;;;15.90;7.82;;;;;;;15.08;36.07;96078.47;5061947;28;20080;-56
2021/03/26 11:05:40;;;;;;;15.75;7.53;;;;;;;15.45;36.57;96078.03;5050651;28;20055;-53
2021/03/26 11:08:09;;;;;;;14.05;8.07;;;;;;;15.60;34.39;96062.75;5055898;28;20061;-52
2021/03/26 11:10:46;;;;;;;15.38;7.97;;;;;;;15.94;33.58;96068.44;5056431;28;20494;-52
2021/03/26 11:13:19;;;;;;;12.68;7.15;;;;;;;15.70;34.09;96061.41;5051285;28;20075;-48
2021/03/26 11:16:05;;;;;;;15.07;8.40;;;;;;;15.52;33.77;96064.53;5051289;28;20473;-51
2021/03/26 11:19:01;;;;;;;23.92;7.53;;;;;;;15.95;33.62;96062.63;5055267;28;20051;-50
2021/03/26 11:21:41;;;;;;;14.60;7.95;;;;;;;16.13;32.84;96052.00;5046804;28;20132;-48
2021/03/26 11:24:10;;;;;;;13.93;7.32;;;;;;;16.64;32.83;96054.38;5053386;28;20137;-47
2021/03/26 11:26:42;;;;;;;11.50;6.78;;;;;;;16.81;33.22;96053.84;5051052;28;20041;-49
2021/03/26 11:29:27;;;;;;;18.02;9.40;;;;;;;16.99;31.29;96042.34;5061029;28;20052;-47
2021/03/26 11:32:27;;;;;;;13.77;7.55;;;;;;;17.25;31.46;96044.25;5049894;28;20045;-47
2021/03/26 11:35:08;;;;;;;17.83;7.95;;;;;;;17.34;31.12;96039.28;5046771;28;20041;-51
2021/03/26 11:37:56;;;;;;;13.75;7.03;;;;;;;18.12;31.09;96035.78;5031071;28;20514;-50
2021/03/26 11:40:48;;;;;;;12.10;7.00;;;;;;;18.25;29.70;96031.56;5031980;28;20077;-49
2021/03/26 11:43:20;;;;;;;10.38;6.82;;;;;;;18.25;29.32;96031.56;5031621;28;20066;-52
2021/03/26 11:45:57;;;;;;;12.02;6.78;;;;;;;17.87;29.21;96024.59;5047968;28;20048;-47
2021/03/26 11:48:35;;;;;;;11.57;6.63;;;;;;;17.74;30.11;96029.53;5066131;22;20107;-56
2021/03/26 11:51:41;;;;;;;15.40;7.95;;;;;;;18.13;29.34;96020.91;5049838;28;20041;-54
2021/03/26 11:54:23;;;;;;;12.32;7.30;;;;;;;17.93;30.66;96010.19;5050911;28;20087;-55
2021/03/26 11:56:59;;;;;;;11.45;7.40;;;;;;;18.54;28.58;96016.13;5041798;28;20073;-53
2021/03/26 12:00:03;;;;;;;10.88;7.30;;;;;;;18.03;29.21;96005.19;5031175;28;20060;-51
2021/03/26 12:02:53;;;;;;;12.02;7.00;;;;;;;18.40;27.99;96003.13;5031273;28;20053;-55
2021/03/26 12:05:57;;;;;;;12.95;7.68;;;;;;;18.67;29.10;95997.41;5030791;28;20137;-51
2021/03/26 12:08:39;;;;;;;14.75;7.38;;;;;;;19.00;28.75;95992.91;5029436;28;20461;-53
2021/03/26 12:11:18;;;;;;;14.25;6.93;;;;;;;19.42;28.06;95988.75;5030953;28;20064;-54
2021/03/26 12:14:12;;;;;;;14.68;7.45;;;;;;;19.63;27.49;95983.31;5030953;28;20091;-54
2021/03/26 12:17:01;;;;;;;14.65;7.10;;;;;;;19.48;27.79;95981.72;5030705;28;20498;-54
2021/03/26 12:19:32;;;;;;;11.82;7.28;;;;;;;19.99;27.04;95984.16;5030653;28;20525;-54
2021/03/26 12:22:30;;;;;;;13.93;7.57;;;;;;;19.68;25.55;95982.16;5030688;28;20065;-53
2021/03/26 12:25:37;;;;;;;14.18;7.35;;;;;;;19.78;25.84;95979.41;5033779;28;20053;-54
2021/03/26 12:28:16;;;;;;;12.15;6.57;;;;;;;20.27;26.71;95971.56;5046668;28;20107;-55
2021/03/26 12:30:57;;;;;;;12.73;6.93;;;;;;;20.13;27.03;95975.13;5052643;28;20086;-54
2021/03/26 12:33:40;;;;;;;13.80;7.30;;;;;;;21.07;24.62;95971.00;5063652;28;20061;-52
2021/03/26 12:36:13;;;;;;;14.60;7.65;;;;;;;21.17;24.94;95972.94;5050342;28;20588;-55
2021/03/26 12:39:08;;;;;;;12.35;6.95;;;;;;;22.29;23.05;95960.00;5051857;28;20417;-57
2021/03/26 12:41:46;;;;;;;11.63;6.68;;;;;;;22.71;22.36;95960.78;5047166;28;20058;-54
2021/03/26 12:44:39;;;;;;;11.00;6.78;;;;;;;23.16;21.58;95962.66;5066098;28;20523;-56
2021/03/26 12:47:40;;;;;;;11.63;6.68;;;;;;;21.75;22.47;95956.13;5046918;28;20056;-54
2021/03/26 12:50:10;;;;;;;12.15;6.68;;;;;;;22.16;22.84;95947.91;5057046;28;20049;-56
2021/03/26 12:52:42;;;;;;;10.18;6.00;;;;;;;21.74;21.53;95943.50;5051705;28;20045;-56